Time;durP1;ratioP1;P1;durP2;ratioP2;P2;SDS_P1;SDS_P2;PMS_P1;PMS_P2;Temp;Humidity;BMP_temperature;BMP_pressure;BME280_temperature;BME280_humidity;BME280_pressure;Samples;Min_cycle;Max_cycle;Signal;HPM_P1;HPM_P2
2023/04/01 00:01:44;;;;;;;;;;;10.50;99.90;;;;;;5155769;27;19944;-44
2023/04/01 00:04:10;;;;;;;;;;;10.50;99.90;;;;;;5156725;27;19907;-48
2023/04/01 00:06:35;;;;;;;;;;;10.40;99.90;;;;;;5156557;27;19956;-46
2023/04/01 00:09:01;;;;;;;;;;;10.50;99.90;;;;;;5155860;27;19907;-43
2023/04/01 00:11:27;;;;;;;;;;;10.50;99.90;;;;;;5156681;27;19915;-47
2023/04/01 00:13:53;;;;;;;;;;;10.50;99.90;;;;;;5156725;27;19994;-44
2023/04/01 00:16:19;;;;;;;;;;;10.50;99.90;;;;;;5155702;27;20003;-44
2023/04/01 00:18:44;;;;;;;;;;;10.50;99.90;;;;;;5156529;27;19954;-45
2023/04/01 00:21:09;;;;;;;;;;;10.50;99.90;;;;;;5156366;27;19913;-47
2023/04/01 00:23:35;;;;;;;;;;;10.50;99.90;;;;;;5155303;27;19960;-46
2023/04/01 00:26:02;;;;;;;;;;;10.50;99.90;;;;;;5156390;27;20369;-43
2023/04/01 00:28:28;;;;;;;;;;;10.50;99.90;;;;;;5156374;27;19919;-46
2023/04/01 00:30:53;;;;;;;;;;;10.50;99.90;;;;;;5155672;27;19913;-44
2023/04/01 00:33:19;;;;;;;;;;;10.50;99.90;;;;;;5156217;27;20421;-44
2023/04/01 00:35:45;;;;;;;;;;;10.50;99.90;;;;;;5156087;27;19908;-44
2023/04/01 00:38:11;;;;;;;;;;;10.50;99.90;;;;;;5155238;27;20262;-45
2023/04/01 00:40:46;;;;;;;;;;;10.50;99.90;;;;;;5156052;27;19946;-44
2023/04/01 00:43:13;;;;;;;;;;;10.40;99.90;;;;;;5155211;27;19911;-43
2023/04/01 00:45:40;;;;;;;;;;;10.50;99.90;;;;;;5155995;27;19970;-45
2023/04/01 00:48:08;;;;;;;;;;;10.50;99.90;;;;;;5155752;27;20369;-47
2023/04/01 00:50:35;;;;;;;;;;;10.50;99.90;;;;;;5155112;27;20346;-46
2023/04/01 00:53:01;;;;;;;;;;;10.50;99.90;;;;;;5155742;27;19914;-44
2023/04/01 00:55:27;;;;;;;;;;;10.50;99.90;;;;;;5155860;27;19907;-44
2023/04/01 00:57:53;;;;;;;;;;;10.50;99.90;;;;;;5155293;27;19987;-45
2023/04/01 01:00:18;;;;;;;;;;;10.50;99.90;;;;;;5155707;27;20021;-46
2023/04/01 01:02:45;;;;;;;;;;;10.50;99.90;;;;;;5155339;27;20006;-43
2023/04/01 01:05:14;;;;;;;;;;;10.50;99.90;;;;;;5154859;27;19911;-44
2023/04/01 01:07:43;;;;;;;;;;;10.50;99.90;;;;;;5155552;27;19915;-46
2023/04/01 01:10:18;;;;;;;;;;;10.50;99.90;;;;;;5155476;27;19954;-43
2023/04/01 01:12:52;;;;;;;;;;;10.50;99.90;;;;;;5154799;27;19907;-44
2023/04/01 01:15:21;;;;;;;;;;;10.40;99.90;;;;;;5155269;27;19911;-44
2023/04/01 01:18:07;;;;;;;;;;;10.40;99.90;;;;;;5155430;27;19911;-45
2023/04/01 01:20:36;;;;;;;;;;;10.40;99.90;;;;;;5136760;27;19914;-45
2023/04/01 01:23:14;;;;;;;;;;;10.40;99.90;;;;;;5155205;27;20250;-45
2023/04/01 01:25:42;;;;;;;;;;;10.40;99.90;;;;;;5154399;27;20042;-46
2023/04/01 01:28:07;;;;;;;;;;;10.40;99.90;;;;;;5155068;27;19954;-43
2023/04/01 01:30:36;;;;;;;;;;;10.40;99.90;;;;;;5155176;27;19957;-45
2023/04/01 01:33:04;;;;;;;;;;;10.40;99.90;;;;;;5154356;27;19919;-47
2023/04/01 01:35:35;;;;;;;;;;;10.40;99.90;;;;;;5154287;27;19907;-44
2023/04/01 01:38:06;;;;;;;;;;;10.40;99.90;;;;;;5154964;27;20342;-45
2023/04/01 01:40:33;;;;;;;;;;;10.30;99.90;;;;;;5154167;27;19907;-44
2023/04/01 01:43:01;;;;;;;;;;;10.30;99.90;;;;;;5154853;27;19907;-45
2023/04/01 01:45:27;;;;;;;;;;;10.40;99.90;;;;;;5154889;27;19954;-44
2023/04/01 01:47:54;;;;;;;;;;;10.40;99.90;;;;;;5154060;27;20378;-45
2023/04/01 01:50:21;;;;;;;;;;;10.40;99.90;;;;;;5154816;27;19940;-43
2023/04/01 01:52:46;;;;;;;;;;;10.30;99.90;;;;;;5154662;27;19907;-45
2023/04/01 01:55:30;;;;;;;;;;;10.30;99.90;;;;;;5153886;27;19907;-45
2023/04/01 01:57:57;;;;;;;;;;;10.30;99.90;;;;;;5154683;27;20289;-43
2023/04/01 02:00:23;;;;;;;;;;;10.30;99.90;;;;;;5153588;27;19962;-44
2023/04/01 02:02:50;;;;;;;;;;;10.30;99.90;;;;;;5154435;27;19958;-45
2023/04/01 02:05:19;;;;;;;;;;;10.30;99.90;;;;;;5154482;27;19918;-45
2023/04/01 02:07:48;;;;;;;;;;;10.30;99.90;;;;;;5153629;27;19957;-43
2023/04/01 02:10:14;;;;;;;;;;;10.30;99.90;;;;;;5154478;27;19911;-43
2023/04/01 02:12:40;;;;;;;;;;;10.30;99.90;;;;;;5154480;27;19911;-47
2023/04/01 02:15:08;;;;;;;;;;;10.40;99.90;;;;;;5153576;27;19941;-44
2023/04/01 02:17:37;;;;;;;;;;;10.40;99.90;;;;;;5154402;27;20012;-44
2023/04/01 02:20:06;;;;;;;;;;;10.40;99.90;;;;;;5154347;27;19961;-45
2023/04/01 02:22:32;;;;;;;;;;;10.40;99.90;;;;;;5153560;27;19941;-43
2023/04/01 02:25:00;;;;;;;;;;;10.40;99.90;;;;;;5154353;27;20006;-44
2023/04/01 02:27:25;;;;;;;;;;;10.40;99.90;;;;;;5154289;27;19916;-43
2023/04/01 02:29:51;;;;;;;;;;;10.40;99.90;;;;;;5153526;27;19907;-45
2023/04/01 02:32:18;;;;;;;;;;;10.40;99.90;;;;;;5154152;27;20281;-45
2023/04/01 02:34:44;;;;;;;;;;;10.40;99.90;;;;;;5154294;27;20350;-44
2023/04/01 02:37:10;;;;;;;;;;;10.40;99.90;;;;;;5153496;27;19914;-45
2023/04/01 02:39:35;;;;;;;;;;;10.40;99.90;;;;;;5154303;27;19914;-46
2023/04/01 02:42:01;;;;;;;;;;;10.40;99.90;;;;;;5154195;27;20306;-44
2023/04/01 02:44:26;;;;;;;;;;;10.40;99.90;;;;;;5153519;27;19911;-44
2023/04/01 02:46:52;;;;;;;;;;;10.30;99.90;;;;;;5157059;27;20329;-45
2023/04/01 02:49:18;;;;;;;;;;;10.40;99.90;;;;;;5158246;27;19964;-45
2023/04/01 02:51:43;;;;;;;;;;;10.30;99.90;;;;;;5157474;27;19914;-43
2023/04/01 02:54:09;;;;;;;;;;;10.40;99.90;;;;;;5158244;27;19954;-44
2023/04/01 02:56:34;;;;;;;;;;;10.30;99.90;;;;;;5157370;27;20261;-43
2023/04/01 02:59:00;;;;;;;;;;;10.40;99.90;;;;;;5158124;27;19915;-43
2023/04/01 03:01:25;;;;;;;;;;;10.30;99.90;;;;;;5157716;27;19963;-44
2023/04/01 03:03:51;;;;;;;;;;;10.30;99.90;;;;;;5157332;27;19916;-43
2023/04/01 03:06:17;;;;;;;;;;;10.40;99.90;;;;;;5157839;27;19907;-45
2023/04/01 03:08:43;;;;;;;;;;;10.40;99.90;;;;;;5157969;27;19911;-43
2023/04/01 03:11:08;;;;;;;;;;;10.30;99.90;;;;;;5157103;27;19907;-44
2023/04/01 03:13:34;;;;;;;;;;;10.30;99.90;;;;;;5157852;27;20365;-47
2023/04/01 03:16:00;;;;;;;;;;;10.30;99.90;;;;;;5157698;27;19930;-42
2023/04/01 03:18:25;;;;;;;;;;;10.40;99.90;;;;;;5157040;27;19911;-45
2023/04/01 03:20:50;;;;;;;;;;;10.30;99.90;;;;;;5157631;27;19914;-44
2023/04/01 03:23:19;;;;;;;;;;;10.30;99.90;;;;;;5157592;27;19907;-42
2023/04/01 03:25:45;;;;;;;;;;;10.30;99.90;;;;;;5156858;27;19908;-44
2023/04/01 03:28:10;;;;;;;;;;;10.30;99.90;;;;;;5157413;27;19915;-44
2023/04/01 03:30:36;;;;;;;;;;;10.30;99.90;;;;;;5157407;27;20389;-43
2023/04/01 03:33:02;;;;;;;;;;;10.30;99.90;;;;;;5156642;27;19907;-43
2023/04/01 03:35:27;;;;;;;;;;;10.30;99.90;;;;;;5157714;27;19997;-45
2023/04/01 03:37:53;;;;;;;;;;;10.30;99.90;;;;;;5157369;27;20423;-45
2023/04/01 03:40:19;;;;;;;;;;;10.30;99.90;;;;;;5156502;27;19930;-43
2023/04/01 03:42:44;;;;;;;;;;;10.30;99.90;;;;;;5157309;27;20417;-43
2023/04/01 03:45:11;;;;;;;;;;;10.30;99.90;;;;;;5157134;27;19915;-43
2023/04/01 03:47:37;;;;;;;;;;;10.30;99.90;;;;;;5156297;27;19954;-44
2023/04/01 03:50:03;;;;;;;;;;;10.30;99.90;;;;;;5157104;27;19938;-44
2023/04/01 03:52:29;;;;;;;;;;;10.30;99.90;;;;;;5157036;27;19958;-44
2023/04/01 03:54:54;;;;;;;;;;;10.30;99.90;;;;;;5156214;27;19907;-45
2023/04/01 03:57:20;;;;;;;;;;;10.30;99.90;;;;;;5156265;27;19907;-43
2023/04/01 03:59:45;;;;;;;;;;;10.20;99.90;;;;;;5156885;27;19952;-44
2023/04/01 04:02:10;;;;;;;;;;;10.20;99.90;;;;;;5155843;27;20370;-44
2023/04/01 04:04:36;;;;;;;;;;;10.30;99.90;;;;;;5157017;27;19907;-46
2023/04/01 04:07:01;;;;;;;;;;;10.20;99.90;;;;;;5155916;27;19951;-43
2023/04/01 04:09:27;;;;;;;;;;;10.20;99.90;;;;;;5156864;27;20110;-44
2023/04/01 04:11:52;;;;;;;;;;;10.20;99.90;;;;;;5156770;27;20335;-45
2023/04/01 04:14:18;;;;;;;;;;;10.20;99.90;;;;;;5155729;27;19911;-44
2023/04/01 04:16:44;;;;;;;;;;;10.30;99.90;;;;;;5156562;27;19912;-43
2023/04/01 04:19:09;;;;;;;;;;;10.20;99.90;;;;;;5156460;27;19933;-44
2023/04/01 04:21:34;;;;;;;;;;;10.20;99.90;;;;;;5155925;27;20372;-43
2023/04/01 04:24:01;;;;;;;;;;;10.20;99.90;;;;;;5156366;27;19914;-45
2023/04/01 04:26:26;;;;;;;;;;;10.20;99.90;;;;;;5156319;27;20414;-45
2023/04/01 04:28:52;;;;;;;;;;;10.20;99.90;;;;;;5155727;27;19911;-46
2023/04/01 04:31:18;;;;;;;;;;;10.20;99.90;;;;;;5156215;27;20415;-44
2023/04/01 04:33:44;;;;;;;;;;;10.20;99.90;;;;;;5156241;27;19907;-44
2023/04/01 04:36:09;;;;;;;;;;;10.20;99.90;;;;;;5155427;27;20048;-44
2023/04/01 04:38:35;;;;;;;;;;;10.20;99.90;;;;;;5156181;27;19945;-43
2023/04/01 04:41:00;;;;;;;;;;;10.20;99.90;;;;;;5156073;27;19907;-44
2023/04/01 04:43:26;;;;;;;;;;;10.20;99.90;;;;;;5155283;27;20285;-44
2023/04/01 04:45:51;;;;;;;;;;;10.20;99.90;;;;;;5155971;27;19907;-43
2023/04/01 04:48:18;;;;;;;;;;;10.20;99.90;;;;;;5155787;27;19919;-45
2023/04/01 04:50:45;;;;;;;;;;;10.20;99.90;;;;;;5155060;27;19907;-46
2023/04/01 04:53:13;;;;;;;;;;;10.20;99.90;;;;;;5155751;27;19907;-45
2023/04/01 04:55:49;;;;;;;;;;;10.20;99.90;;;;;;5155875;27;19907;-47
2023/04/01 04:58:14;;;;;;;;;;;10.20;99.90;;;;;;5154910;27;20352;-42
2023/04/01 05:00:40;;;;;;;;;;;10.20;99.90;;;;;;5155463;27;19942;-45
2023/04/01 05:03:06;;;;;;;;;;;10.20;99.90;;;;;;5155340;27;19918;-47
2023/04/01 05:05:31;;;;;;;;;;;10.20;99.90;;;;;;5155424;27;19959;-43
2023/04/01 05:07:57;;;;;;;;;;;10.20;99.90;;;;;;5155448;27;20369;-44
2023/04/01 05:10:22;;;;;;;;;;;10.20;99.90;;;;;;5153654;27;19957;-43
2023/04/01 05:12:47;;;;;;;;;;;10.20;99.90;;;;;;5155320;27;19950;-47
2023/04/01 05:15:13;;;;;;;;;;;10.20;99.90;;;;;;5155437;27;19955;-42
2023/04/01 05:17:39;;;;;;;;;;;10.20;99.90;;;;;;5154630;27;20401;-43
2023/04/01 05:20:05;;;;;;;;;;;10.20;99.90;;;;;;5155294;27;20371;-45
2023/04/01 05:22:30;;;;;;;;;;;10.20;99.90;;;;;;5155299;27;19907;-44
2023/04/01 05:24:56;;;;;;;;;;;10.20;99.90;;;;;;5154668;27;20384;-46
2023/04/01 05:27:21;;;;;;;;;;;10.20;99.90;;;;;;5155077;27;20021;-44
2023/04/01 05:29:47;;;;;;;;;;;10.20;99.90;;;;;;5155096;27;19907;-44
2023/04/01 05:32:12;;;;;;;;;;;10.20;99.90;;;;;;5154190;27;19907;-44
2023/04/01 05:34:37;;;;;;;;;;;10.20;99.90;;;;;;5155132;27;19911;-41
2023/04/01 05:37:03;;;;;;;;;;;10.20;99.90;;;;;;5154986;27;19977;-44
2023/04/01 05:39:28;;;;;;;;;;;10.20;99.90;;;;;;5154179;27;19907;-44
2023/04/01 05:41:54;;;;;;;;;;;10.20;99.90;;;;;;5155120;27;20293;-46
2023/04/01 05:44:19;;;;;;;;;;;10.20;99.90;;;;;;5154878;27;19911;-43
2023/04/01 05:46:45;;;;;;;;;;;10.20;99.90;;;;;;5154060;27;19945;-45
2023/04/01 05:49:10;;;;;;;;;;;10.20;99.90;;;;;;5154828;27;20010;-44
2023/04/01 05:51:36;;;;;;;;;;;10.20;99.90;;;;;;5154793;27;19907;-45
2023/04/01 05:54:03;;;;;;;;;;;10.20;99.90;;;;;;5153922;27;19915;-44
2023/04/01 05:56:29;;;;;;;;;;;10.20;99.90;;;;;;5154716;27;19907;-44
2023/04/01 05:58:54;;;;;;;;;;;10.20;99.90;;;;;;5154630;27;19915;-44
2023/04/01 06:01:20;;;;;;;;;;;10.20;99.90;;;;;;5153594;27;19942;-45
2023/04/01 06:03:46;;;;;;;;;;;10.20;99.90;;;;;;5154729;27;19915;-48
2023/04/01 06:06:14;;;;;;;;;;;10.20;99.90;;;;;;5154481;27;19907;-43
2023/04/01 06:08:40;;;;;;;;;;;10.20;99.90;;;;;;5153701;27;19926;-43
2023/04/01 06:11:18;;;;;;;;;;;10.20;99.90;;;;;;5154472;27;19906;-44
2023/04/01 06:14:05;;;;;;;;;;;10.30;99.90;;;;;;5153839;27;19907;-45
2023/04/01 06:16:49;;;;;;;;;;;10.30;99.90;;;;;;5154486;27;20289;-43
2023/04/01 06:19:17;;;;;;;;;;;10.30;99.90;;;;;;5154401;27;19911;-45
2023/04/01 06:22:02;;;;;;;;;;;10.30;99.90;;;;;;5153262;27;19911;-44
2023/04/01 06:24:45;;;;;;;;;;;10.30;99.90;;;;;;5154399;27;19911;-44
2023/04/01 06:27:29;;;;;;;;;;;10.30;99.90;;;;;;5154232;27;19918;-45
2023/04/01 06:30:33;;;;;;;;;;;10.40;99.90;;;;;;5153818;27;19930;-43
2023/04/01 06:33:17;;;;;;;;;;;10.40;99.90;;;;;;5050064;28;19944;-44
2023/04/01 06:36:03;;;;;;;;;;;10.40;99.90;;;;;;5049389;28;19908;-45
2023/04/01 06:38:34;;;;;;;;;;;10.40;99.90;;;;;;5125971;27;19914;-43
2023/04/01 06:41:17;;;;;;;;;;;10.40;99.90;;;;;;5154292;27;19914;-42
2023/04/01 06:43:51;;;;;;;;;;;10.50;99.90;;;;;;5153584;27;19907;-43
2023/04/01 06:46:27;;;;;;;;;;;10.50;99.90;;;;;;5154254;27;19952;-44
2023/04/01 06:49:06;;;;;;;;;;;10.50;99.90;;;;;;5153424;27;19923;-43
2023/04/01 06:51:57;;;;;;;;;;;10.60;99.90;;;;;;5154179;27;20388;-43
2023/04/01 06:54:26;;;;;;;;;;;10.60;99.90;;;;;;5148966;27;19946;-44
2023/04/01 06:56:57;;;;;;;;;;;10.70;99.90;;;;;;5153200;27;19911;-43
2023/04/01 06:59:28;;;;;;;;;;;10.70;99.90;;;;;;5154260;27;19910;-44
2023/04/01 07:01:55;;;;;;;;;;;10.70;99.90;;;;;;5153805;27;19923;-43
2023/04/01 07:04:25;;;;;;;;;;;10.70;99.90;;;;;;5153353;27;19907;-44
2023/04/01 07:06:53;;;;;;;;;;;10.70;99.90;;;;;;5153845;27;20365;-45
2023/04/01 07:09:21;;;;;;;;;;;10.70;99.90;;;;;;5153912;27;19915;-43
2023/04/01 07:11:47;;;;;;;;;;;10.70;99.90;;;;;;5153234;27;20277;-44
2023/04/01 07:14:19;;;;;;;;;;;10.70;99.90;;;;;;5154065;27;19914;-45
2023/04/01 07:16:51;;;;;;;;;;;10.80;99.90;;;;;;5153354;27;19995;-49
2023/04/01 07:19:36;;;;;;;;;;;10.80;99.90;;;;;;5154154;27;19907;-44
2023/04/01 07:22:04;;;;;;;;;;;10.80;99.90;;;;;;5153666;27;19951;-44
2023/04/01 07:24:34;;;;;;;;;;;10.80;99.90;;;;;;5153041;27;20039;-43
2023/04/01 07:27:00;;;;;;;;;;;10.80;99.90;;;;;;5153740;27;19918;-42
2023/04/01 07:29:26;;;;;;;;;;;10.80;99.90;;;;;;5153808;27;20287;-44
2023/04/01 07:32:00;;;;;;;;;;;10.90;99.90;;;;;;5152973;27;20364;-45
2023/04/01 07:34:38;;;;;;;;;;;10.90;99.90;;;;;;5157444;27;19914;-43
2023/04/01 07:37:15;;;;;;;;;;;11.00;99.90;;;;;;5157383;27;19979;-46
2023/04/01 07:39:40;;;;;;;;;;;11.00;99.90;;;;;;5156589;27;19914;-45
2023/04/01 07:42:06;;;;;;;;;;;11.00;99.90;;;;;;5157231;27;19907;-46
2023/04/01 07:44:44;;;;;;;;;;;11.00;99.90;;;;;;5157230;27;20383;-42
2023/04/01 07:47:16;;;;;;;;;;;11.10;99.90;;;;;;5156249;27;20273;-45
2023/04/01 07:49:47;;;;;;;;;;;11.10;99.90;;;;;;5157327;27;19950;-44
2023/04/01 07:52:24;;;;;;;;;;;11.20;99.90;;;;;;5156250;27;20213;-42
2023/04/01 07:55:09;;;;;;;;;;;11.20;99.90;;;;;;5157177;27;19908;-43
2023/04/01 07:57:54;;;;;;;;;;;11.20;99.90;;;;;;5156412;27;19907;-44
2023/04/01 08:00:27;;;;;;;;;;;11.30;99.90;;;;;;5156205;27;19921;-43
2023/04/01 08:02:58;;;;;;;;;;;11.30;99.90;;;;;;5156650;27;20065;-43
2023/04/01 08:05:40;;;;;;;;;;;11.30;99.90;;;;;;5156911;27;19907;-44
2023/04/01 08:08:19;;;;;;;;;;;11.30;99.90;;;;;;5155940;27;19915;-42
2023/04/01 08:10:47;;;;;;;;;;;11.30;99.90;;;;;;5156955;27;19907;-44
2023/04/01 08:13:21;;;;;;;;;;;11.20;99.90;;;;;;5155887;27;19998;-43
2023/04/01 08:15:46;;;;;;;;;;;11.30;99.90;;;;;;5156795;27;19908;-45
2023/04/01 08:18:44;;;;;;;;;;;11.30;99.90;;;;;;5156564;27;19998;-44
2023/04/01 08:21:30;;;;;;;;;;;11.40;99.90;;;;;;5098522;27;19998;-45
2023/04/01 08:23:57;;;;;;;;;;;11.40;99.90;;;;;;5138292;27;20404;-44
2023/04/01 08:26:26;;;;;;;;;;;11.50;99.90;;;;;;5156347;27;19930;-46
2023/04/01 08:28:57;;;;;;;;;;;11.50;99.90;;;;;;5155730;27;20009;-43
2023/04/01 08:31:45;;;;;;;;;;;11.60;99.90;;;;;;5156416;27;20380;-45
2023/04/01 08:34:23;;;;;;;;;;;11.50;99.90;;;;;;5155501;27;20006;-43
2023/04/01 08:36:57;;;;;;;;;;;11.60;99.90;;;;;;5156374;27;20024;-43
2023/04/01 08:39:22;;;;;;;;;;;11.60;99.90;;;;;;5156295;27;19959;-45
2023/04/01 08:41:51;;;;;;;;;;;11.70;99.90;;;;;;5155416;27;19985;-45
2023/04/01 08:44:19;;;;;;;;;;;11.70;99.90;;;;;;5155735;27;20299;-44
2023/04/01 08:46:54;;;;;;;;;;;11.70;99.90;;;;;;5156009;27;20354;-45
2023/04/01 08:49:34;;;;;;;;;;;11.80;99.90;;;;;;5155112;27;20318;-45
2023/04/01 08:52:05;;;;;;;;;;;11.80;99.90;;;;;;5155857;27;19976;-44
2023/04/01 08:54:40;;;;;;;;;;;11.80;99.90;;;;;;5155939;27;19911;-44
2023/04/01 08:57:13;;;;;;;;;;;11.80;99.90;;;;;;5154947;27;20414;-44
2023/04/01 08:59:45;;;;;;;;;;;11.70;99.90;;;;;;5155836;27;19911;-44
2023/04/01 09:02:24;;;;;;;;;;;11.70;99.90;;;;;;5155329;27;19919;-43
2023/04/01 09:04:53;;;;;;;;;;;11.70;99.90;;;;;;5155756;27;19943;-45
2023/04/01 09:07:21;;;;;;;;;;;11.80;99.90;;;;;;5155574;27;20002;-45
2023/04/01 09:09:46;;;;;;;;;;;11.80;99.90;;;;;;5154783;27;20370;-44
2023/04/01 09:12:27;;;;;;;;;;;11.90;99.90;;;;;;5155328;27;19914;-43
2023/04/01 09:15:11;;;;;;;;;;;11.90;99.90;;;;;;5155487;27;20010;-44
2023/04/01 09:17:45;;;;;;;;;;;12.00;99.90;;;;;;5154898;27;19907;-44
2023/04/01 09:20:27;;;;;;;;;;;12.00;99.90;;;;;;5155282;27;19952;-46
2023/04/01 09:23:07;;;;;;;;;;;12.00;99.90;;;;;;5155379;27;19911;-45
2023/04/01 09:25:56;;;;;;;;;;;12.00;99.90;;;;;;5154586;27;19907;-44
2023/04/01 09:28:42;;;;;;;;;;;12.00;99.90;;;;;;5141175;27;19915;-48
2023/04/01 09:31:14;;;;;;;;;;;12.00;99.90;;;;;;5135894;27;20367;-44
2023/04/01 09:33:54;;;;;;;;;;;11.90;99.90;;;;;;5155130;27;20259;-45
2023/04/01 09:36:32;;;;;;;;;;;11.90;99.90;;;;;;5155117;27;19907;-46
2023/04/01 09:39:23;;;;;;;;;;;11.90;99.90;;;;;;5154250;27;19908;-48
2023/04/01 09:41:52;;;;;;;;;;;12.00;99.90;;;;;;5149917;27;20005;-45
2023/04/01 09:44:29;;;;;;;;;;;12.00;99.90;;;;;;5154844;27;19907;-45
2023/04/01 09:47:06;;;;;;;;;;;12.10;99.90;;;;;;5154832;27;19911;-46
2023/04/01 09:50:01;;;;;;;;;;;12.10;99.90;;;;;;5154989;27;19907;-45
2023/04/01 09:52:30;;;;;;;;;;;12.20;99.90;;;;;;5131361;27;19995;-45
2023/04/01 09:54:55;;;;;;;;;;;12.20;99.90;;;;;;5154282;27;20354;-47
2023/04/01 09:57:34;;;;;;;;;;;12.20;99.90;;;;;;5154497;27;19998;-45
2023/04/01 10:00:21;;;;;;;;;;;12.30;99.90;;;;;;5153973;27;19907;-47
2023/04/01 10:03:05;;;;;;;;;;;12.20;99.90;;;;;;5154496;27;19919;-47
2023/04/01 10:05:58;;;;;;;;;;;12.20;99.90;;;;;;5154571;27;20410;-46
2023/04/01 10:08:56;;;;;;;;;;;12.30;99.90;;;;;;5154484;27;19923;-45
2023/04/01 10:11:21;;;;;;;;;;;12.40;99.90;;;;;;5097225;27;19911;-47
2023/04/01 10:13:59;;;;;;;;;;;12.30;99.90;;;;;;5153780;27;20426;-48
2023/04/01 10:16:31;;;;;;;;;;;12.30;99.90;;;;;;5154529;27;19907;-46
2023/04/01 10:18:59;;;;;;;;;;;12.30;99.90;;;;;;5154354;27;19914;-47
2023/04/01 10:21:30;;;;;;;;;;;12.30;99.90;;;;;;5154044;27;19907;-49
2023/04/01 10:24:19;;;;;;;;;;;12.20;99.90;;;;;;5154334;27;20463;-45
2023/04/01 10:27:03;;;;;;;;;;;12.10;99.90;;;;;;5139555;27;20255;-46
2023/04/01 10:29:44;;;;;;;;;;;12.10;99.90;;;;;;5154329;27;19914;-46
2023/04/01 10:32:15;;;;;;;;;;;12.10;99.90;;;;;;5154256;27;19994;-47
2023/04/01 10:34:40;;;;;;;;;;;12.20;99.90;;;;;;5153521;27;20385;-46
2023/04/01 10:37:18;;;;;;;;;;;12.40;99.90;;;;;;5154230;27;19933;-47
2023/04/01 10:39:53;;;;;;;;;;;12.50;99.90;;;;;;5154273;27;19907;-47
2023/04/01 10:42:33;;;;;;;;;;;12.50;99.90;;;;;;5153322;27;19914;-50
2023/04/01 10:45:17;;;;;;;;;;;12.50;99.90;;;;;;5154191;27;19943;-48
2023/04/01 10:47:48;;;;;;;;;;;12.40;99.90;;;;;;5154083;27;20005;-47
2023/04/01 10:50:23;;;;;;;;;;;12.40;99.90;;;;;;5153974;27;19911;-48
2023/04/01 10:53:15;;;;;;;;;;;12.30;99.90;;;;;;5154221;27;20002;-48
2023/04/01 10:55:46;;;;;;;;;;;12.10;99.90;;;;;;5153392;27;20005;-47
2023/04/01 10:58:12;;;;;;;;;;;12.00;99.90;;;;;;5153969;27;19907;-48
2023/04/01 11:00:52;;;;;;;;;;;11.90;99.90;;;;;;5153800;27;20015;-47
2023/04/01 11:03:40;;;;;;;;;;;11.80;99.90;;;;;;5153194;27;19919;-50
2023/04/01 11:06:11;;;;;;;;;;;11.60;99.90;;;;;;5153880;27;19911;-48
2023/04/01 11:08:37;;;;;;;;;;;11.50;99.90;;;;;;5157945;27;20002;-49
2023/04/01 11:11:02;;;;;;;;;;;11.40;99.90;;;;;;5156960;27;20475;-49
2023/04/01 11:13:34;;;;;;;;;;;11.40;99.90;;;;;;5157846;27;20258;-48
2023/04/01 11:16:05;;;;;;;;;;;11.30;99.90;;;;;;5156938;27;19911;-46
2023/04/01 11:18:33;;;;;;;;;;;11.30;99.90;;;;;;5157845;27;20354;-48
2023/04/01 11:21:22;;;;;;;;;;;11.20;99.90;;;;;;5157695;27;20014;-46
2023/04/01 11:24:03;;;;;;;;;;;11.20;99.90;;;;;;5143130;27;19980;-48
2023/04/01 11:26:37;;;;;;;;;;;11.10;99.90;;;;;;5157666;27;20002;-49
2023/04/01 11:29:07;;;;;;;;;;;11.10;99.90;;;;;;5157511;27;20365;-47
2023/04/01 11:31:51;;;;;;;;;;;11.10;99.90;;;;;;5156814;27;19907;-52
2023/04/01 11:34:23;;;;;;;;;;;11.20;99.90;;;;;;5157372;27;19963;-49
2023/04/01 11:37:07;;;;;;;;;;;11.10;99.90;;;;;;5157440;27;20354;-52
2023/04/01 11:39:37;;;;;;;;;;;11.10;99.90;;;;;;5157386;27;19941;-48
2023/04/01 11:42:09;;;;;;;;;;;11.10;99.90;;;;;;5157336;27;20373;-47
2023/04/01 11:44:39;;;;;;;;;;;11.10;99.90;;;;;;5156440;27;19994;-51
2023/04/01 11:47:05;;;;;;;;;;;11.10;99.90;;;;;;5157149;27;19911;-47
2023/04/01 11:49:33;;;;;;;;;;;11.10;99.90;;;;;;5157150;27;19951;-50
2023/04/01 11:51:59;;;;;;;;;;;11.20;99.90;;;;;;5156506;27;19964;-46
2023/04/01 11:54:27;;;;;;;;;;;11.30;99.90;;;;;;5157138;27;20332;-47
2023/04/01 11:57:05;;;;;;;;;;;11.30;99.90;;;;;;5156961;27;19908;-47
2023/04/01 11:59:43;;;;;;;;;;;11.30;99.90;;;;;;5156206;27;19907;-47
2023/04/01 12:02:11;;;;;;;;;;;11.40;99.90;;;;;;5156629;27;19919;-49
2023/04/01 12:04:40;;;;;;;;;;;11.30;99.90;;;;;;5156972;27;19957;-46
2023/04/01 12:07:05;;;;;;;;;;;11.30;99.90;;;;;;5156204;27;19918;-49
2023/04/01 12:09:34;;;;;;;;;;;11.30;99.90;;;;;;5156818;27;19915;-51
2023/04/01 12:12:18;;;;;;;;;;;11.20;99.90;;;;;;5156829;27;19946;-48
2023/04/01 12:14:52;;;;;;;;;;;11.20;99.90;;;;;;5156927;27;19907;-49
2023/04/01 12:17:36;;;;;;;;;;;11.20;99.90;;;;;;5156696;27;19920;-47
2023/04/01 12:20:20;;;;;;;;;;;11.10;99.90;;;;;;5155076;27;20361;-47
2023/04/01 12:22:52;;;;;;;;;;;11.20;99.90;;;;;;5156604;27;19911;-46
2023/04/01 12:25:20;;;;;;;;;;;11.10;99.90;;;;;;5156521;27;19960;-46
2023/04/01 12:27:46;;;;;;;;;;;11.20;99.90;;;;;;5155668;27;20107;-46
2023/04/01 12:30:21;;;;;;;;;;;11.20;99.90;;;;;;5156352;27;19907;-47
2023/04/01 12:33:05;;;;;;;;;;;11.20;99.90;;;;;;5156432;27;19938;-47
2023/04/01 12:35:44;;;;;;;;;;;11.10;99.90;;;;;;5155614;27;20001;-49
2023/04/01 12:38:30;;;;;;;;;;;11.10;99.90;;;;;;5156222;27;19907;-49
2023/04/01 12:41:15;;;;;;;;;;;11.00;99.90;;;;;;5155372;27;19914;-46
2023/04/01 12:44:06;;;;;;;;;;;10.90;99.90;;;;;;5156251;27;19907;-50
2023/04/01 12:46:50;;;;;;;;;;;10.90;99.90;;;;;;5156219;27;19907;-49
2023/04/01 12:49:45;;;;;;;;;;;10.80;99.90;;;;;;5155254;27;19915;-51
2023/04/01 12:52:11;;;;;;;;;;;10.80;99.90;;;;;;5133442;27;19907;-49
2023/04/01 12:54:37;;;;;;;;;;;10.80;99.90;;;;;;5155200;27;19918;-46
2023/04/01 12:57:05;;;;;;;;;;;10.80;99.90;;;;;;5155798;27;19906;-49
2023/04/01 12:59:34;;;;;;;;;;;10.70;99.90;;;;;;5155787;27;19907;-47
2023/04/01 13:02:18;;;;;;;;;;;10.70;99.90;;;;;;5154735;27;19974;-47
2023/04/01 13:04:55;;;;;;;;;;;10.70;99.90;;;;;;5155780;27;19914;-46
2023/04/01 13:07:40;;;;;;;;;;;10.70;99.90;;;;;;5155615;27;19915;-47
2023/04/01 13:10:20;;;;;;;;;;;10.60;99.90;;;;;;5154808;27;19907;-45
2023/04/01 13:13:00;;;;;;;;;;;10.60;99.90;;;;;;5155678;27;19995;-45
2023/04/01 13:15:31;;;;;;;;;;;10.60;99.90;;;;;;5155330;27;19921;-53
2023/04/01 13:18:15;;;;;;;;;;;10.60;99.90;;;;;;5155439;27;19907;-47
2023/04/01 13:20:41;;;;;;;;;;;10.60;99.90;;;;;;5155511;27;19907;-47
2023/04/01 13:23:13;;;;;;;;;;;10.60;99.90;;;;;;5154529;27;20289;-49
2023/04/01 13:25:44;;;;;;;;;;;10.60;99.90;;;;;;5155432;27;19908;-48
2023/04/01 13:28:30;;;;;;;;;;;10.50;99.90;;;;;;5155109;27;19915;-46
2023/04/01 13:31:01;;;;;;;;;;;10.50;99.90;;;;;;5152871;27;19914;-46
2023/04/01 13:33:32;;;;;;;;;;;10.50;99.90;;;;;;5155291;27;20000;-49
2023/04/01 13:36:12;;;;;;;;;;;10.50;99.90;;;;;;5155110;27;19915;-47
2023/04/01 13:38:38;;;;;;;;;;;10.50;99.90;;;;;;5154419;27;19907;-46
2023/04/01 13:41:22;;;;;;;;;;;10.50;99.90;;;;;;5155000;27;19960;-49
2023/04/01 13:43:51;;;;;;;;;;;10.40;99.90;;;;;;5154250;27;19907;-48
2023/04/01 13:46:44;;;;;;;;;;;10.40;99.90;;;;;;5154915;27;20278;-48
2023/04/01 13:49:12;;;;;;;;;;;10.40;99.90;;;;;;5115349;27;19918;-49
2023/04/01 13:52:00;;;;;;;;;;;10.30;99.90;;;;;;5154078;27;19907;-48
2023/04/01 13:54:29;;;;;;;;;;;10.30;99.90;;;;;;5154898;27;20246;-47
2023/04/01 13:57:01;;;;;;;;;;;10.30;99.90;;;;;;5154815;27;19914;-47
2023/04/01 13:59:46;;;;;;;;;;;10.20;99.90;;;;;;5153927;27;20339;-48
2023/04/01 14:02:30;;;;;;;;;;;10.20;99.90;;;;;;5154384;27;19942;-50
2023/04/01 14:05:14;;;;;;;;;;;10.30;99.90;;;;;;5153871;27;19911;-47
2023/04/01 14:07:51;;;;;;;;;;;10.40;99.90;;;;;;5154653;27;19919;-50
2023/04/01 14:10:19;;;;;;;;;;;10.30;99.90;;;;;;5154413;27;19972;-50
2023/04/01 14:12:47;;;;;;;;;;;10.30;99.90;;;;;;5153748;27;20345;-47
2023/04/01 14:15:34;;;;;;;;;;;10.30;99.90;;;;;;5154454;27;19908;-47
2023/04/01 14:18:13;;;;;;;;;;;10.30;99.90;;;;;;5154506;27;20369;-47
2023/04/01 14:20:51;;;;;;;;;;;10.20;99.90;;;;;;5153739;27;19908;-50
2023/04/01 14:23:20;;;;;;;;;;;10.30;99.90;;;;;;5154558;27;20010;-49
2023/04/01 14:25:58;;;;;;;;;;;10.20;99.90;;;;;;5154265;27;20338;-52
2023/04/01 14:28:26;;;;;;;;;;;10.20;99.90;;;;;;5154396;27;19916;-51
2023/04/01 14:30:57;;;;;;;;;;;10.20;99.90;;;;;;5149084;27;19915;-49
2023/04/01 14:33:31;;;;;;;;;;;10.20;99.90;;;;;;5138873;27;19911;-48
2023/04/01 14:35:56;;;;;;;;;;;10.20;99.90;;;;;;5152181;27;19911;-52
2023/04/01 14:38:46;;;;;;;;;;;10.20;99.90;;;;;;5136789;27;20278;-50
2023/04/01 14:41:30;;;;;;;;;;;10.10;99.90;;;;;;5154140;27;19918;-48
2023/04/01 14:43:59;;;;;;;;;;;10.10;99.90;;;;;;5159116;27;20422;-49